• Join FlightAware (Why Join?)
  • Login
  • US Flag 
 
04:50AM EST


 

Airport Tracker/Info


-or-


 

Live Flight TrackerFlight Track Log ✈ N50906 ✈ 11-May-2013 ✈ KSET - KUBX

Flight Track Log - Related Links

Times and Time Zones

All times are in EDT time to prevent confusion due to time zone crossing. See the N50906 flight status page for this flight to view local times or setup timezone preferences in your user account.

Time Position Orientation Groundspeed Altitude Reporting Facility
EDT Latitude Longitude Course Direction KTS MPH feet Rate Location/Type
04:46PM 38.8333 -90.6000 223° Southwest 103 119 1,900  Level Gateway (St. Louis) TRACON
04:47PM 38.8167 -90.6167 218° Southwest 81 93 2,600 660 Climbing Gateway (St. Louis) TRACON
04:48PM 38.8000 -90.6500 237° Southwest 92 106 3,300 600 Climbing Gateway (St. Louis) TRACON
04:49PM 38.7833 -90.6667 218° Southwest 98 113 3,800 480 Climbing Gateway (St. Louis) TRACON
04:50PM 38.7772 -90.6658 174° South 93 107 3,900 420 Climbing Kansas City Center
04:51PM 38.7558 -90.6881 219° Southwest 97 112 4,400 240 Climbing Kansas City Center
04:52PM 38.7588 -90.6309 223° Southwest  Level Estimated
04:52PM 38.7347 -90.7131 223° Southwest 100 115 4,400  Level Kansas City Center
04:53PM 38.7158 -90.7406 229° Southwest 102 117 4,300 -60 Descending Kansas City Center
04:54PM 38.6903 -90.7706 223° Southwest 103 119 4,300  Level Kansas City Center
04:55PM 38.6686 -90.7983 225° Southwest 106 122 4,300  Level Kansas City Center
04:56PM 38.6450 -90.8233 220° Southwest 109 125 4,400  Climbing Kansas City Center
04:57PM 38.6253 -90.8511 228° Southwest 108 124 4,300  Descending Kansas City Center
04:58PM 38.6064 -90.8786 229° Southwest 106 122 4,400 60 Climbing Kansas City Center
04:59PM 38.5872 -90.9067 229° Southwest 105 121 4,500  Climbing Kansas City Center
05:00PM 38.5594 -90.9386 222° Southwest 110 127 4,400 -120 Descending Kansas City Center
05:01PM 38.5353 -90.9644 220° Southwest 113 130 4,300 -120 Descending Kansas City Center
05:02PM 38.5142 -90.9900 223° Southwest 107 123 4,200 -60 Descending Kansas City Center
05:03PM 38.4931 -91.0142 222° Southwest 104 120 4,200  Level Kansas City Center
05:04PM 38.4708 -91.0414 224° Southwest 108 124 4,200 -60 Level Kansas City Center
05:05PM 38.4506 -91.0672 225° Southwest 106 122 4,100 60 Descending Kansas City Center
05:06PM 38.4294 -91.0908 221° Southwest 102 117 4,400 180 Climbing Kansas City Center
05:07PM 38.4017 -91.1192 219° Southwest 105 121 4,500 -60 Climbing Kansas City Center
05:08PM 38.3772 -91.1433 218° Southwest 110 127 4,300 -120 Descending Kansas City Center
05:09PM 38.3561 -91.1694 224° Southwest 107 123 4,300  Level Kansas City Center
05:10PM 38.3358 -91.1944 224° Southwest 104 120 4,300  Level Kansas City Center
05:11PM 38.3131 -91.2200 221° Southwest 107 123 4,300  Level Kansas City Center
05:12PM 38.2925 -91.2458 225° Southwest 106 122 4,400  Climbing Kansas City Center
05:13PM 38.2728 -91.2742 228° Southwest 107 123 4,400  Level Kansas City Center